createdAt,value
2019-05-18T00:00:39.827Z,22.90
2019-05-18T00:03:14.100Z,21.52
2019-05-18T00:05:48.624Z,20.92
2019-05-18T00:08:22.872Z,20.68
2019-05-18T00:10:57.321Z,21.82
2019-05-18T00:13:31.518Z,22.42
2019-05-18T00:16:05.868Z,21.48
2019-05-18T00:18:40.083Z,23.42
2019-05-18T00:21:14.354Z,22.90
2019-05-18T00:23:48.651Z,24.10
2019-05-18T00:26:22.847Z,21.85
2019-05-18T00:28:57.099Z,24.15
2019-05-18T00:31:31.676Z,24.27
2019-05-18T00:34:06.874Z,23.55
2019-05-18T00:36:41.091Z,24.15
2019-05-18T00:39:15.626Z,24.20
2019-05-18T00:41:50.285Z,25.37
2019-05-18T00:44:24.458Z,23.02
2019-05-18T00:46:58.944Z,24.10
2019-05-18T00:49:33.391Z,23.83
2019-05-18T00:52:07.766Z,23.95
2019-05-18T00:54:41.947Z,23.52
2019-05-18T00:57:18.223Z,23.83
2019-05-18T00:59:52.423Z,23.27
2019-05-18T01:02:26.705Z,23.95
2019-05-18T01:05:00.885Z,24.55
2019-05-18T01:07:35.182Z,23.73
2019-05-18T01:10:10.162Z,22.93
2019-05-18T01:12:44.459Z,21.75
2019-05-18T01:15:18.982Z,22.00
2019-05-18T01:17:57.327Z,22.55
2019-05-18T01:20:29.487Z,23.70
2019-05-18T01:23:03.789Z,22.27
2019-05-18T01:25:37.973Z,21.07
2019-05-18T01:28:12.251Z,20.32
2019-05-18T01:30:46.511Z,20.97
2019-05-18T01:33:21.197Z,21.00
2019-05-18T01:35:55.489Z,22.65
2019-05-18T01:38:30.162Z,20.55
2019-05-18T01:41:04.520Z,20.72
2019-05-18T01:43:38.702Z,21.82
2019-05-18T01:46:13.003Z,20.95
2019-05-18T01:48:47.453Z,21.37
2019-05-18T01:51:21.738Z,20.00
2019-05-18T01:53:56.162Z,20.50
2019-05-18T01:56:30.414Z,21.05
2019-05-18T01:59:04.999Z,21.20
2019-05-18T02:01:39.219Z,20.80
2019-05-18T02:04:13.642Z,20.43
2019-05-18T02:06:47.818Z,21.57
2019-05-18T02:09:22.384Z,21.93
2019-05-18T02:11:56.660Z,22.32
2019-05-18T02:14:30.829Z,23.80
2019-05-18T02:17:05.378Z,22.45
2019-05-18T02:19:39.560Z,22.27
2019-05-18T02:22:13.856Z,22.32
2019-05-18T02:24:48.191Z,24.92
2019-05-18T02:27:22.473Z,24.80
2019-05-18T02:29:56.833Z,23.07
2019-05-18T02:32:31.006Z,24.87
2019-05-18T02:35:08.985Z,24.95
2019-05-18T02:37:43.229Z,25.10
2019-05-18T02:40:17.577Z,24.15
2019-05-18T02:42:51.789Z,23.07
2019-05-18T02:45:26.146Z,22.67
2019-05-18T02:48:00.439Z,21.73
2019-05-18T02:50:34.886Z,22.20
2019-05-18T02:53:09.248Z,20.50
2019-05-18T02:55:43.515Z,20.45
2019-05-18T02:58:18.401Z,20.55
2019-05-18T03:00:52.558Z,20.05
2019-05-18T03:03:26.958Z,20.27
2019-05-18T03:06:01.265Z,19.17
2019-05-18T03:08:35.831Z,19.42
2019-05-18T03:11:10.147Z,19.65
2019-05-18T03:13:44.586Z,18.60
2019-05-18T03:16:19.139Z,18.30
2019-05-18T03:19:07.315Z,19.55
2019-05-18T03:21:29.471Z,19.62
2019-05-18T03:24:04.394Z,19.20
2019-05-18T03:26:38.754Z,18.42
2019-05-18T03:29:13.824Z,19.82
2019-05-18T03:31:48.066Z,19.45
2019-05-18T03:34:22.521Z,17.90
2019-05-18T03:36:56.742Z,17.92
2019-05-18T03:39:31.367Z,18.07
2019-05-18T03:42:05.716Z,18.65
2019-05-18T03:44:40.288Z,17.75
2019-05-18T03:47:14.762Z,18.52
2019-05-18T03:49:49.179Z,18.07
2019-05-18T03:52:23.455Z,17.75
2019-05-18T03:54:57.998Z,18.12
2019-05-18T03:57:32.383Z,18.32
2019-05-18T04:00:08.278Z,18.65
2019-05-18T04:02:42.494Z,17.02
2019-05-18T04:05:16.920Z,17.82
2019-05-18T04:07:51.110Z,17.32
2019-05-18T04:10:27.183Z,17.30
2019-05-18T04:13:01.505Z,17.25
2019-05-18T04:15:35.788Z,17.73
2019-05-18T04:18:09.949Z,17.55
2019-05-18T04:20:44.213Z,15.78
2019-05-18T04:23:18.502Z,15.78
2019-05-18T04:25:52.978Z,15.68
2019-05-18T04:28:27.152Z,16.02
2019-05-18T04:31:01.675Z,17.10
2019-05-18T04:33:35.938Z,16.80
2019-05-18T04:36:10.375Z,17.50
2019-05-18T04:38:44.589Z,18.20
2019-05-18T04:41:19.166Z,18.82
2019-05-18T04:43:53.508Z,18.60
2019-05-18T04:46:27.845Z,19.45
2019-05-18T04:49:02.027Z,19.60
2019-05-18T04:51:36.367Z,19.02
2019-05-18T04:54:10.705Z,18.27
2019-05-18T04:56:44.913Z,19.27
2019-05-18T04:59:19.153Z,18.37
2019-05-18T05:01:53.636Z,18.42
2019-05-18T05:04:28.467Z,17.73
2019-05-18T05:07:02.937Z,17.98
2019-05-18T05:09:37.508Z,17.85
2019-05-18T05:12:12.005Z,17.48
2019-05-18T05:14:46.665Z,17.27
2019-05-18T05:17:20.917Z,15.80
2019-05-18T05:19:55.140Z,15.48
2019-05-18T05:22:29.501Z,15.23
2019-05-18T05:25:04.199Z,14.85
2019-05-18T05:27:38.345Z,14.70
2019-05-18T05:30:13.025Z,15.60
2019-05-18T05:32:47.603Z,14.47
2019-05-18T05:35:22.205Z,15.38
2019-05-18T05:37:56.458Z,15.93
2019-05-18T05:40:30.666Z,14.68
2019-05-18T05:43:05.096Z,15.45
2019-05-18T05:45:39.387Z,15.68
2019-05-18T05:48:13.822Z,15.20
2019-05-18T05:50:47.973Z,15.68
2019-05-18T05:53:22.164Z,16.15
2019-05-18T05:55:56.379Z,14.68
2019-05-18T05:58:30.745Z,14.23
2019-05-18T06:01:05.132Z,13.93
2019-05-18T06:03:40.019Z,15.93
2019-05-18T06:06:14.235Z,15.30
2019-05-18T06:08:48.689Z,14.87
2019-05-18T06:11:22.915Z,15.13
2019-05-18T06:13:57.570Z,14.20
2019-05-18T06:16:31.964Z,14.15
2019-05-18T06:19:06.223Z,13.40
2019-05-18T06:21:41.466Z,14.13
2019-05-18T06:24:15.671Z,14.00
2019-05-18T06:26:50.120Z,14.33
2019-05-18T06:29:24.356Z,14.95
2019-05-18T06:31:58.930Z,14.45
2019-05-18T06:34:33.099Z,14.15
2019-05-18T06:37:07.593Z,14.87
2019-05-18T06:39:41.808Z,15.80
2019-05-18T06:42:16.414Z,15.43
2019-05-18T06:44:50.605Z,16.32
2019-05-18T06:47:24.999Z,15.83
2019-05-18T06:49:59.178Z,16.02
2019-05-18T06:52:33.832Z,15.23
2019-05-18T06:55:08.352Z,15.53
2019-05-18T06:57:44.338Z,15.80
2019-05-18T07:00:18.901Z,15.05
2019-05-18T07:02:53.344Z,15.50
2019-05-18T07:05:27.570Z,16.35
2019-05-18T07:08:02.035Z,16.87
2019-05-18T07:10:36.320Z,16.55
2019-05-18T07:13:10.803Z,17.87
2019-05-18T07:15:45.357Z,17.75
2019-05-18T07:18:19.632Z,17.40
2019-05-18T07:20:53.890Z,16.93
2019-05-18T07:23:28.358Z,17.77
2019-05-18T07:26:02.711Z,17.62
2019-05-18T07:28:38.047Z,17.05
2019-05-18T07:31:12.395Z,17.12
2019-05-18T07:33:46.862Z,16.23
2019-05-18T07:36:21.156Z,17.80
2019-05-18T07:38:56.474Z,18.02
2019-05-18T07:41:44.532Z,17.48
2019-05-18T07:44:06.695Z,18.95
2019-05-18T07:46:41.468Z,18.60
2019-05-18T07:49:15.931Z,17.37
2019-05-18T07:51:50.538Z,18.12
2019-05-18T07:54:24.739Z,18.57
2019-05-18T07:56:59.309Z,18.52
2019-05-18T07:59:33.487Z,18.95
2019-05-18T08:02:08.479Z,19.05
2019-05-18T08:04:42.799Z,19.92
2019-05-18T08:07:17.383Z,20.05
2019-05-18T08:09:51.639Z,20.92
2019-05-18T08:12:26.074Z,20.85
2019-05-18T08:15:00.426Z,19.75
2019-05-18T08:17:34.883Z,20.32
2019-05-18T08:20:10.234Z,20.85
2019-05-18T08:22:44.536Z,20.40
2019-05-18T08:25:18.705Z,21.17
2019-05-18T08:27:52.915Z,21.77
2019-05-18T08:30:27.143Z,23.22
2019-05-18T08:33:01.388Z,22.20
2019-05-18T08:35:35.756Z,25.37
2019-05-18T08:38:10.100Z,24.12
2019-05-18T08:40:44.473Z,24.95
2019-05-18T08:43:18.692Z,24.25
2019-05-18T08:45:54.542Z,25.65
2019-05-18T08:48:28.771Z,24.98
2019-05-18T08:51:04.575Z,23.60
2019-05-18T08:53:38.765Z,23.98
2019-05-18T08:56:13.156Z,23.02
2019-05-18T08:58:47.342Z,24.27
2019-05-18T09:01:21.640Z,22.90
2019-05-18T09:03:55.851Z,26.55
2019-05-18T09:06:30.133Z,24.98
2019-05-18T09:09:06.139Z,26.90
2019-05-18T09:11:40.460Z,25.65
2019-05-18T09:14:14.672Z,27.73
2019-05-18T09:16:48.895Z,26.65
2019-05-18T09:19:23.277Z,29.25
2019-05-18T09:21:57.884Z,26.48
2019-05-18T09:24:32.210Z,26.37
2019-05-18T09:27:06.781Z,24.23
2019-05-18T09:29:41.226Z,22.93
2019-05-18T09:32:15.504Z,24.47
2019-05-18T09:34:50.023Z,23.70
2019-05-18T09:37:24.501Z,24.55
2019-05-18T09:39:58.688Z,23.12
2019-05-18T09:42:33.416Z,24.40
2019-05-18T09:45:08.741Z,22.35
2019-05-18T09:47:43.168Z,22.93
2019-05-18T09:50:17.619Z,22.77
2019-05-18T09:52:51.917Z,23.10
2019-05-18T09:55:26.230Z,22.62
2019-05-18T09:58:00.742Z,22.52
2019-05-18T10:00:38.682Z,19.67
2019-05-18T10:03:10.960Z,19.15
2019-05-18T10:05:45.235Z,21.35
2019-05-18T10:08:19.644Z,20.65
2019-05-18T10:10:53.929Z,20.17
2019-05-18T10:13:28.365Z,19.07
2019-05-18T10:16:02.591Z,17.87
2019-05-18T10:18:37.091Z,18.50
2019-05-18T10:21:11.313Z,18.73
2019-05-18T10:23:45.570Z,16.82
2019-05-18T10:26:20.134Z,17.87
2019-05-18T10:28:54.319Z,15.05
2019-05-18T10:31:28.750Z,15.15
2019-05-18T10:34:02.976Z,15.25
2019-05-18T10:36:37.725Z,16.20
2019-05-18T10:39:11.977Z,17.48
2019-05-18T10:41:46.737Z,15.78
2019-05-18T10:44:21.078Z,15.10
2019-05-18T10:46:56.495Z,15.28
2019-05-18T10:49:30.771Z,15.90
2019-05-18T10:52:05.296Z,13.75
2019-05-18T10:54:39.510Z,12.70
2019-05-18T10:57:14.003Z,14.15
2019-05-18T10:59:48.306Z,13.35
2019-05-18T11:02:22.546Z,12.90
2019-05-18T11:04:57.832Z,13.70
2019-05-18T11:07:32.025Z,13.60
2019-05-18T11:10:10.547Z,12.95
2019-05-18T11:12:44.786Z,12.50
2019-05-18T11:15:19.873Z,13.20
2019-05-18T11:17:54.123Z,13.50
2019-05-18T11:20:28.406Z,13.50
2019-05-18T11:23:02.688Z,10.38
2019-05-18T11:25:36.932Z,11.08
2019-05-18T11:28:11.218Z,12.88
2019-05-18T11:30:45.667Z,11.93
2019-05-18T11:33:19.873Z,11.05
2019-05-18T11:35:54.459Z,10.90
2019-05-18T11:38:28.623Z,11.20
2019-05-18T11:41:03.115Z,10.45
2019-05-18T11:43:37.366Z,10.63
2019-05-18T11:46:11.810Z,11.40
2019-05-18T11:48:46.056Z,11.22
2019-05-18T11:51:20.463Z,11.57
2019-05-18T11:53:58.276Z,11.38
2019-05-18T11:56:31.900Z,12.10
2019-05-18T11:59:06.254Z,10.72
2019-05-18T12:01:40.504Z,10.43
2019-05-18T12:04:14.688Z,11.22
2019-05-18T12:06:49.397Z,10.60
2019-05-18T12:09:23.638Z,10.28
2019-05-18T12:11:58.012Z,11.97
2019-05-18T12:14:32.249Z,11.22
2019-05-18T12:17:06.695Z,11.18
2019-05-18T12:19:40.908Z,10.38
2019-05-18T12:22:15.119Z,11.05
2019-05-18T12:24:49.574Z,11.20
2019-05-18T12:27:24.271Z,11.20
2019-05-18T12:29:58.497Z,11.85
2019-05-18T12:32:34.041Z,10.80
2019-05-18T12:35:09.948Z,9.70
2019-05-18T12:37:44.209Z,10.65
2019-05-18T12:40:20.241Z,10.53
2019-05-18T12:42:54.662Z,11.40
2019-05-18T12:45:28.948Z,11.03
2019-05-18T12:48:04.889Z,11.48
2019-05-18T12:50:39.224Z,11.65
2019-05-18T12:53:13.555Z,11.55
2019-05-18T12:55:47.807Z,11.25
2019-05-18T12:58:22.295Z,12.45
2019-05-18T13:00:56.486Z,11.78
2019-05-18T13:03:31.061Z,11.78
2019-05-18T13:06:06.088Z,12.18
2019-05-18T13:08:40.311Z,12.23
2019-05-18T13:11:14.655Z,12.20
2019-05-18T13:13:49.020Z,12.47
2019-05-18T13:16:23.353Z,11.93
2019-05-18T13:18:58.012Z,11.57
2019-05-18T13:21:32.323Z,11.53
2019-05-18T13:24:06.583Z,11.73
2019-05-18T13:26:40.888Z,12.50
2019-05-18T13:29:15.258Z,11.57
2019-05-18T13:31:49.548Z,13.10
2019-05-18T13:34:24.023Z,12.18
2019-05-18T13:36:58.307Z,11.85
2019-05-18T13:39:32.614Z,12.60
2019-05-18T13:42:07.813Z,12.90
2019-05-18T13:44:42.047Z,12.40
2019-05-18T13:47:16.698Z,13.62
2019-05-18T13:49:50.916Z,13.90
2019-05-18T13:52:25.369Z,12.43
2019-05-18T13:55:04.152Z,12.25
2019-05-18T13:57:35.985Z,12.70
2019-05-18T14:00:10.937Z,11.90
2019-05-18T14:02:45.124Z,11.78
2019-05-18T14:05:20.155Z,11.28
2019-05-18T14:07:54.360Z,11.22
2019-05-18T14:10:28.793Z,10.43
2019-05-18T14:13:02.962Z,11.38
2019-05-18T14:15:39.588Z,11.18
2019-05-18T14:18:13.840Z,10.00
2019-05-18T14:20:48.333Z,10.48
2019-05-18T14:23:22.520Z,10.18
2019-05-18T14:25:56.819Z,10.30
2019-05-18T14:28:31.144Z,10.45
2019-05-18T14:31:05.525Z,10.13
2019-05-18T14:33:40.860Z,10.43
2019-05-18T14:36:15.078Z,10.90
2019-05-18T14:38:49.601Z,9.95
2019-05-18T14:41:23.965Z,10.08
2019-05-18T14:43:58.432Z,10.03
2019-05-18T14:46:32.602Z,9.70
2019-05-18T14:49:06.907Z,10.03
2019-05-18T14:51:41.771Z,10.32
2019-05-18T14:54:15.989Z,10.32
2019-05-18T14:56:50.556Z,10.45
2019-05-18T14:59:24.908Z,10.13
2019-05-18T15:01:59.309Z,10.48
2019-05-18T15:04:33.610Z,13.00
2019-05-18T15:07:08.071Z,11.22
2019-05-18T15:09:42.400Z,11.97
2019-05-18T15:12:16.770Z,10.58
2019-05-18T15:14:51.058Z,10.53
2019-05-18T15:17:25.478Z,10.38
2019-05-18T15:19:59.764Z,10.10
2019-05-18T15:22:34.220Z,9.60
2019-05-18T15:25:09.472Z,10.43
2019-05-18T15:27:43.816Z,10.90
2019-05-18T15:30:18.562Z,10.68
2019-05-18T15:32:52.834Z,10.30
2019-05-18T15:35:27.344Z,10.50
2019-05-18T15:38:01.573Z,11.15
2019-05-18T15:40:36.091Z,10.05
2019-05-18T15:43:10.668Z,10.13
2019-05-18T15:45:45.264Z,9.83
2019-05-18T15:48:19.480Z,11.43
2019-05-18T15:50:54.239Z,9.83
2019-05-18T15:53:28.580Z,10.30
2019-05-18T15:56:06.189Z,9.85
2019-05-18T15:58:40.178Z,8.78
2019-05-18T16:01:15.614Z,10.05
2019-05-18T16:03:49.824Z,8.70
2019-05-18T16:06:24.409Z,9.45
2019-05-18T16:08:58.573Z,8.85
2019-05-18T16:11:33.008Z,9.83
2019-05-18T16:14:07.241Z,9.08
2019-05-18T16:16:41.876Z,9.40
2019-05-18T16:19:16.112Z,9.30
2019-05-18T16:21:50.491Z,9.28
2019-05-18T16:24:24.737Z,8.13
2019-05-18T16:26:59.031Z,8.55
2019-05-18T16:29:33.189Z,8.00
2019-05-18T16:32:07.558Z,7.72
2019-05-18T16:34:41.742Z,8.53
2019-05-18T16:37:17.759Z,8.43
2019-05-18T16:39:51.980Z,7.90
2019-05-18T16:42:26.431Z,8.13
2019-05-18T16:45:00.849Z,7.25
2019-05-18T16:47:35.343Z,8.08
2019-05-18T16:50:10.380Z,6.90
2019-05-18T16:52:45.005Z,7.60
2019-05-18T16:55:19.327Z,8.23
2019-05-18T16:57:53.677Z,8.65
2019-05-18T17:00:27.947Z,8.53
2019-05-18T17:03:02.330Z,9.00
2019-05-18T17:05:36.837Z,9.85
2019-05-18T17:08:11.023Z,10.65
2019-05-18T17:10:45.681Z,11.75
2019-05-18T17:13:19.947Z,12.18
2019-05-18T17:15:54.558Z,11.88
2019-05-18T17:18:28.867Z,12.93
2019-05-18T17:21:03.679Z,13.50
2019-05-18T17:23:37.969Z,13.32
2019-05-18T17:26:12.641Z,14.55
2019-05-18T17:28:50.212Z,14.73
2019-05-18T17:31:24.470Z,15.90
2019-05-18T17:33:59.105Z,15.00
2019-05-18T17:36:33.395Z,16.82
2019-05-18T17:39:07.820Z,15.75
2019-05-18T17:41:42.352Z,16.60
2019-05-18T17:44:16.600Z,17.65
2019-05-18T17:46:51.211Z,17.45
2019-05-18T17:49:27.113Z,17.95
2019-05-18T17:52:01.888Z,17.65
2019-05-18T17:54:36.088Z,17.42
2019-05-18T17:57:10.765Z,17.57
2019-05-18T17:59:45.082Z,18.12
2019-05-18T18:02:21.480Z,18.92
2019-05-18T18:04:55.757Z,18.45
2019-05-18T18:07:30.189Z,18.73
2019-05-18T18:10:06.127Z,19.73
2019-05-18T18:12:40.546Z,20.08
2019-05-18T18:15:16.000Z,19.52
2019-05-18T18:17:52.837Z,19.82
2019-05-18T18:20:27.050Z,19.30
2019-05-18T18:23:01.538Z,19.50
2019-05-18T18:25:35.750Z,18.32
2019-05-18T18:28:10.436Z,19.05
2019-05-18T18:30:44.747Z,19.17
2019-05-18T18:33:18.995Z,19.05
2019-05-18T18:35:53.192Z,20.00
2019-05-18T18:38:27.783Z,19.55
2019-05-18T18:41:02.108Z,18.92
2019-05-18T18:43:36.543Z,18.12
2019-05-18T18:46:10.816Z,19.17
2019-05-18T18:48:45.200Z,18.23
2019-05-18T18:51:19.482Z,18.67
2019-05-18T18:53:54.078Z,19.37
2019-05-18T18:56:28.422Z,19.70
2019-05-18T18:59:02.847Z,18.45
2019-05-18T19:01:37.052Z,18.37
2019-05-18T19:04:11.452Z,17.42
2019-05-18T19:06:45.724Z,18.23
2019-05-18T19:09:22.280Z,18.20
2019-05-18T19:11:56.528Z,17.48
2019-05-18T19:14:31.044Z,18.27
2019-05-18T19:17:05.371Z,17.65
2019-05-18T19:19:40.315Z,17.85
2019-05-18T19:22:14.576Z,17.07
2019-05-18T19:24:49.207Z,17.85
2019-05-18T19:27:23.423Z,16.87
2019-05-18T19:29:57.671Z,16.52
2019-05-18T19:32:31.965Z,16.97
2019-05-18T19:35:08.507Z,17.00
2019-05-18T19:37:43.106Z,16.10
2019-05-18T19:40:17.450Z,16.57
2019-05-18T19:42:53.727Z,15.93
2019-05-18T19:45:27.988Z,16.07
2019-05-18T19:48:02.669Z,15.85
2019-05-18T19:50:36.896Z,16.40
2019-05-18T19:53:11.328Z,15.43
2019-05-18T19:55:45.549Z,15.08
2019-05-18T19:58:20.012Z,15.95
2019-05-18T20:00:54.278Z,14.55
2019-05-18T20:03:28.747Z,13.93
2019-05-18T20:06:03.915Z,13.88
2019-05-18T20:08:38.678Z,14.03
2019-05-18T20:11:12.872Z,13.25
2019-05-18T20:13:47.265Z,12.53
2019-05-18T20:16:21.475Z,13.45
2019-05-18T20:18:57.543Z,13.58
2019-05-18T20:21:31.819Z,13.58
2019-05-18T20:24:06.425Z,13.60
2019-05-18T20:26:40.707Z,15.88
2019-05-18T20:29:14.972Z,17.07
2019-05-18T20:31:49.648Z,18.30
2019-05-18T20:34:23.856Z,19.40
2019-05-18T20:36:58.906Z,19.37
2019-05-18T20:39:33.114Z,19.92
2019-05-18T20:42:07.693Z,20.27
2019-05-18T20:44:42.008Z,20.32
2019-05-18T20:47:16.379Z,19.90
2019-05-18T20:49:50.697Z,20.32
2019-05-18T20:52:25.207Z,20.35
2019-05-18T20:54:59.430Z,19.50
2019-05-18T20:57:33.827Z,20.00
2019-05-18T21:00:08.783Z,20.00
2019-05-18T21:02:43.206Z,19.02
2019-05-18T21:05:17.547Z,20.15
2019-05-18T21:07:51.967Z,20.43
2019-05-18T21:10:26.277Z,20.55
2019-05-18T21:13:01.100Z,20.40
2019-05-18T21:15:35.357Z,20.82
2019-05-18T21:18:09.983Z,19.27
2019-05-18T21:20:44.182Z,20.90
2019-05-18T21:23:18.609Z,21.12
2019-05-18T21:25:52.826Z,21.12
2019-05-18T21:28:27.274Z,20.05
2019-05-18T21:31:01.567Z,21.00
2019-05-18T21:33:35.833Z,22.37
2019-05-18T21:36:10.236Z,21.17
2019-05-18T21:38:44.427Z,22.13
2019-05-18T21:41:18.911Z,21.23
2019-05-18T21:43:53.197Z,21.97
2019-05-18T21:46:27.686Z,21.62
2019-05-18T21:49:02.061Z,21.42
2019-05-18T21:51:36.382Z,21.48
2019-05-18T21:54:10.676Z,20.40
2019-05-18T21:56:45.202Z,21.30
2019-05-18T21:59:19.441Z,21.27
2019-05-18T22:01:54.017Z,20.97
2019-05-18T22:04:28.238Z,21.12
2019-05-18T22:07:03.855Z,20.48
2019-05-18T22:09:38.155Z,21.85
2019-05-18T22:12:12.331Z,21.37
2019-05-18T22:14:46.866Z,21.30
2019-05-18T22:17:21.381Z,20.60
2019-05-18T22:19:55.575Z,20.90
2019-05-18T22:22:29.890Z,20.32
2019-05-18T22:25:04.303Z,18.90
2019-05-18T22:27:38.663Z,19.82
2019-05-18T22:30:12.974Z,21.77
2019-05-18T22:32:47.210Z,20.97
2019-05-18T22:35:21.517Z,22.15
2019-05-18T22:37:56.129Z,20.20
2019-05-18T22:40:30.333Z,20.92
2019-05-18T22:43:06.267Z,20.90
2019-05-18T22:45:40.632Z,22.22
2019-05-18T22:48:15.080Z,22.65
2019-05-18T22:50:49.313Z,22.58
2019-05-18T22:53:23.915Z,22.37
2019-05-18T22:55:58.198Z,21.12
2019-05-18T22:58:32.619Z,19.30
2019-05-18T23:01:06.977Z,20.68
2019-05-18T23:03:41.391Z,20.77
2019-05-18T23:06:15.598Z,21.27
2019-05-18T23:08:50.118Z,21.93
2019-05-18T23:11:24.368Z,22.02
2019-05-18T23:13:58.805Z,22.73
2019-05-18T23:16:32.987Z,20.82
2019-05-18T23:19:08.648Z,19.07
2019-05-18T23:21:42.304Z,17.10
2019-05-18T23:24:16.790Z,14.98
2019-05-18T23:26:51.086Z,16.37
2019-05-18T23:29:25.454Z,17.12
2019-05-18T23:31:59.755Z,15.90
2019-05-18T23:34:33.355Z,15.50
2019-05-18T23:37:06.980Z,14.40
2019-05-18T23:39:41.703Z,12.95
2019-05-18T23:42:15.379Z,12.73
2019-05-18T23:44:49.575Z,12.47
2019-05-18T23:47:23.274Z,12.63
2019-05-18T23:49:57.338Z,12.23
2019-05-18T23:52:31.542Z,10.78
2019-05-18T23:55:07.442Z,10.90
2019-05-18T23:57:41.113Z,11.33
